createdAt,value
2019-04-22T00:00:53.868Z,101828.36
2019-04-22T00:03:32.319Z,101824.64
2019-04-22T00:06:16.567Z,101829.28
2019-04-22T00:08:53.245Z,101823.75
2019-04-22T00:11:26.061Z,101828.95
2019-04-22T00:13:53.865Z,101819.66
2019-04-22T00:16:27.803Z,101819.86
2019-04-22T00:21:26.278Z,101818.22
2019-04-22T00:23:53.025Z,101813.55
2019-04-22T00:26:37.539Z,101811.70
2019-04-22T00:29:21.387Z,101817.24
2019-04-22T00:32:03.443Z,101813.45
2019-04-22T00:34:40.882Z,101809.30
2019-04-22T00:37:25.209Z,101810.14
2019-04-22T00:39:51.779Z,101813.73
2019-04-22T00:42:27.466Z,101809.48
2019-04-22T00:45:04.921Z,101803.77
2019-04-22T00:47:30.604Z,101805.41
2019-04-22T00:52:28.119Z,101802.39
2019-04-22T00:55:10.103Z,101796.61
2019-04-22T00:57:28.076Z,101798.47
2019-04-22T01:00:28.889Z,101798.88
2019-04-22T01:02:59.275Z,101799.47
2019-04-22T01:05:32.686Z,101799.84
2019-04-22T01:08:04.225Z,101801.46
2019-04-22T01:10:28.709Z,101798.23
2019-04-22T01:12:56.946Z,101789.39
2019-04-22T01:15:28.896Z,101797.62
2019-04-22T01:21:00.989Z,101792.41
2019-04-22T01:23:08.126Z,101790.55
2019-04-22T01:25:34.823Z,101789.69
2019-04-22T01:27:58.274Z,101787.88
2019-04-22T01:30:25.836Z,101787.38
2019-04-22T01:32:50.264Z,101779.83
2019-04-22T01:35:28.929Z,101784.66
2019-04-22T01:38:05.562Z,101784.50
2019-04-22T01:41:05.329Z,101783.64
2019-04-22T01:43:32.837Z,101787.14
2019-04-22T01:46:03.959Z,101785.44
2019-04-22T01:48:36.095Z,101783.56
2019-04-22T01:51:01.706Z,101787.92
2019-04-22T01:53:33.757Z,101784.50
2019-04-22T01:56:06.015Z,101782.03
2019-04-22T01:58:31.187Z,101784.67
2019-04-22T02:01:33.229Z,101787.53
2019-04-22T02:03:54.702Z,101784.20
2019-04-22T02:06:30.562Z,101788.30
2019-04-22T02:09:01.995Z,101796.48
2019-04-22T02:11:32.138Z,101792.68
2019-04-22T02:13:59.181Z,101795.62
2019-04-22T02:16:27.588Z,101786.33
2019-04-22T02:19:01.826Z,101789.70
2019-04-22T02:21:28.687Z,101790.80
2019-04-22T02:24:27.809Z,101795.45
2019-04-22T02:26:54.621Z,101790.13
2019-04-22T02:29:27.290Z,101788.66
2019-04-22T02:31:58.989Z,101790.04
2019-04-22T02:36:58.194Z,101790.08
2019-04-22T02:39:29.287Z,101788.41
2019-04-22T02:41:54.824Z,101776.43
2019-04-22T02:44:43.252Z,101780.02
2019-04-22T02:47:18.522Z,101778.78
2019-04-22T02:52:23.858Z,101765.64
2019-04-22T02:55:02.989Z,101765.80
2019-04-22T02:57:27.986Z,101761.73
2019-04-22T02:59:50.248Z,101758.53
2019-04-22T03:07:31.747Z,101751.83
2019-04-22T03:17:55.176Z,101746.67
2019-04-22T03:20:09.183Z,101746.27
2019-04-22T03:22:34.465Z,101744.42
2019-04-22T03:28:05.699Z,101742.06
2019-04-22T03:40:42.835Z,101739.11
2019-04-22T03:43:09.199Z,101739.66
2019-04-22T03:45:37.899Z,101731.16
2019-04-22T03:48:17.697Z,101737.28
2019-04-22T03:50:36.958Z,101731.84
2019-04-22T03:53:29.154Z,101736.19
2019-04-22T03:55:45.065Z,101735.25
2019-04-22T03:58:13.965Z,101736.76
2019-04-22T04:00:47.614Z,101731.03
2019-04-22T04:05:54.134Z,101734.98
2019-04-22T04:11:07.867Z,101731.40
2019-04-22T04:13:39.493Z,101724.19
2019-04-22T04:16:10.735Z,101722.51
2019-04-22T04:18:49.850Z,101717.40
2019-04-22T04:26:17.045Z,101723.63
2019-04-22T04:29:27.943Z,101719.81
2019-04-22T04:36:41.758Z,101727.55
2019-04-22T04:39:05.071Z,101723.14
2019-04-22T04:41:42.049Z,101722.29
2019-04-22T04:46:51.765Z,101722.55
2019-04-22T04:49:39.214Z,101723.69
2019-04-22T04:54:44.524Z,101726.23
2019-04-22T04:56:56.019Z,101730.17
2019-04-22T05:01:58.318Z,101728.97
2019-04-22T05:04:53.295Z,101727.17
2019-04-22T05:08:00.328Z,101721.06
2019-04-22T05:09:55.041Z,101719.48
2019-04-22T05:12:41.800Z,101612.16
2019-04-22T05:14:55.026Z,101702.19
2019-04-22T05:19:50.286Z,101678.18
2019-04-22T05:22:20.776Z,101695.73
2019-04-22T05:24:51.926Z,101700.95
2019-04-22T05:32:30.986Z,101695.87
2019-04-22T05:35:00.229Z,101699.17
2019-04-22T05:37:34.111Z,101702.31
2019-04-22T05:40:08.782Z,101704.77
2019-04-22T05:42:28.480Z,101697.56
2019-04-22T05:45:10.259Z,101706.86
2019-04-22T05:47:32.285Z,101699.67
2019-04-22T05:50:11.567Z,101695.43
2019-04-22T05:52:40.415Z,101694.22
2019-04-22T05:55:14.384Z,101693.12
2019-04-22T05:57:47.166Z,101701.59
2019-04-22T06:00:28.034Z,101699.01
2019-04-22T06:02:53.554Z,101694.94
2019-04-22T06:05:16.906Z,101707.63
2019-04-22T06:07:55.405Z,101714.84
2019-04-22T06:10:29.294Z,101721.06
2019-04-22T06:12:57.790Z,101717.88
2019-04-22T06:15:29.037Z,101714.41
2019-04-22T06:18:12.386Z,101712.16
2019-04-22T06:20:40.342Z,101724.80
2019-04-22T06:23:12.853Z,101726.16
2019-04-22T06:28:23.536Z,101729.98
2019-04-22T06:30:49.074Z,101721.13
2019-04-22T06:33:20.267Z,101721.13
2019-04-22T06:35:54.159Z,101703.89
2019-04-22T06:38:30.476Z,101706.81
2019-04-22T06:40:54.277Z,101707.61
2019-04-22T06:43:22.442Z,101706.20
2019-04-22T06:45:54.185Z,101704.66
2019-04-22T06:48:27.946Z,101708.94
2019-04-22T06:50:56.913Z,101707.17
2019-04-22T06:53:29.730Z,101706.84
2019-04-22T06:56:01.695Z,101702.83
2019-04-22T06:58:28.881Z,101699.01
2019-04-22T07:01:04.362Z,101702.33
2019-04-22T07:03:44.181Z,101700.34
2019-04-22T07:06:08.969Z,101706.36
2019-04-22T07:11:11.003Z,101710.59
2019-04-22T07:16:13.420Z,101705.98
2019-04-22T07:18:45.056Z,101694.95
2019-04-22T07:21:16.234Z,101684.97
2019-04-22T07:23:55.549Z,101700.69
2019-04-22T07:26:18.919Z,101705.05
2019-04-22T07:28:51.534Z,101694.27
2019-04-22T07:31:20.580Z,101708.66
2019-04-22T07:33:56.899Z,101699.25
2019-04-22T07:38:56.554Z,101705.30
2019-04-22T07:41:29.065Z,101702.90
2019-04-22T07:44:13.078Z,101702.83
2019-04-22T07:47:15.248Z,101707.82
2019-04-22T07:49:43.363Z,101665.86
2019-04-22T07:52:15.972Z,101699.52
2019-04-22T07:54:50.916Z,101692.09
2019-04-22T07:57:26.277Z,101691.86
2019-04-22T07:59:57.198Z,101688.16
2019-04-22T08:02:25.528Z,101691.36
2019-04-22T08:07:34.446Z,101684.68
2019-04-22T08:10:18.894Z,101684.98
2019-04-22T08:12:45.694Z,101686.78
2019-04-22T08:15:12.864Z,101681.92
2019-04-22T08:23:20.498Z,101679.92
2019-04-22T08:25:46.155Z,101682.41
2019-04-22T08:28:17.792Z,101683.70
2019-04-22T08:31:01.944Z,101678.91
2019-04-22T08:34:12.090Z,101684.95
2019-04-22T08:36:40.569Z,101675.62
2019-04-22T08:41:31.906Z,101674.14
2019-04-22T08:46:35.156Z,101674.66
2019-04-22T08:49:00.738Z,101672.32
2019-04-22T08:51:30.788Z,101664.37
2019-04-22T08:59:10.965Z,101661.98
2019-04-22T09:01:35.875Z,101667.85
2019-04-22T09:04:05.759Z,101655.02
2019-04-22T09:07:02.416Z,101661.21
2019-04-22T09:09:24.987Z,101652.80
2019-04-22T09:14:26.062Z,101650.64
2019-04-22T09:16:48.674Z,101654.52
2019-04-22T09:19:23.834Z,101646.81
2019-04-22T09:24:45.940Z,101644.91
2019-04-22T09:27:22.864Z,101643.77
2019-04-22T09:29:54.016Z,101641.34
2019-04-22T09:32:31.717Z,101636.23
2019-04-22T09:34:51.339Z,101634.45
2019-04-22T09:40:04.575Z,101625.52
2019-04-22T09:42:37.143Z,101622.17
2019-04-22T09:44:59.210Z,101629.61
2019-04-22T09:47:36.067Z,101612.19
2019-04-22T09:52:42.112Z,101616.73
2019-04-22T10:00:08.852Z,101613.45
2019-04-22T10:02:41.047Z,101616.31
2019-04-22T10:05:15.092Z,101608.03
2019-04-22T10:07:42.644Z,101599.45
2019-04-22T10:10:26.861Z,101604.66
2019-04-22T10:12:54.057Z,101610.11
2019-04-22T10:15:39.682Z,101596.81
2019-04-22T10:18:12.806Z,101586.42
2019-04-22T10:20:38.094Z,101577.70
2019-04-22T10:23:12.841Z,101578.13
2019-04-22T10:25:45.488Z,101576.30
2019-04-22T10:28:21.133Z,101570.75
2019-04-22T10:37:00.900Z,101572.50
2019-04-22T10:39:37.862Z,101558.45
2019-04-22T11:48:09.285Z,101480.44
2019-04-22T11:50:40.013Z,101469.95
2019-04-22T11:53:09.281Z,101480.31
2019-04-22T11:55:38.834Z,101474.35
2019-04-22T11:58:08.737Z,101466.28
2019-04-22T12:00:39.331Z,101449.54
2019-04-22T12:03:09.304Z,101459.22
2019-04-22T12:05:39.786Z,101458.55
2019-04-22T12:08:09.404Z,101462.75
2019-04-22T12:10:46.901Z,101447.19
2019-04-22T12:13:10.401Z,101454.05
2019-04-22T12:15:40.830Z,101445.59
2019-04-22T12:18:11.174Z,101434.22
2019-04-22T12:20:41.426Z,101434.98
2019-04-22T12:23:12.721Z,101427.20
2019-04-22T12:25:50.380Z,101428.09
2019-04-22T12:28:13.188Z,101424.45
2019-04-22T12:30:43.690Z,101427.13
2019-04-22T12:33:14.923Z,101425.19
2019-04-22T12:35:44.429Z,101417.39
2019-04-22T12:38:15.230Z,101413.16
2019-04-22T12:40:53.133Z,101420.72
2019-04-22T12:43:20.207Z,101405.63
2019-04-22T12:45:49.909Z,101411.77
2019-04-22T12:48:21.166Z,101405.00
2019-04-22T12:50:54.247Z,101405.67
2019-04-22T12:53:25.714Z,101388.29
2019-04-22T12:55:57.330Z,101384.98
2019-04-22T12:58:33.859Z,101383.70
2019-04-22T13:01:17.015Z,101380.79
2019-04-22T13:03:46.978Z,101395.95
2019-04-22T13:06:17.536Z,101379.13
2019-04-22T13:08:47.676Z,101378.48
2019-04-22T13:11:21.344Z,101383.80
2019-04-22T13:13:49.366Z,101370.98
2019-04-22T13:16:20.720Z,101374.34
2019-04-22T13:18:56.534Z,101371.96
2019-04-22T13:21:22.569Z,101350.03
2019-04-22T13:23:53.122Z,101355.51
2019-04-22T13:26:23.157Z,101359.05
2019-04-22T13:28:52.744Z,101352.27
2019-04-22T13:31:22.796Z,101350.95
2019-04-22T13:33:54.954Z,101353.45
2019-04-22T13:36:25.554Z,101345.72
2019-04-22T13:38:55.215Z,101339.30
2019-04-22T13:41:35.453Z,101336.08
2019-04-22T13:43:56.155Z,101352.47
2019-04-22T13:46:30.942Z,101334.87
2019-04-22T13:49:23.973Z,101342.53
2019-04-22T13:57:04.892Z,101339.94
2019-04-22T13:59:11.522Z,101330.61
2019-04-22T14:01:42.958Z,101332.80
2019-04-22T14:04:18.555Z,101329.11
2019-04-22T14:06:49.095Z,101323.29
2019-04-22T14:09:20.328Z,101321.06
2019-04-22T14:11:56.703Z,101323.89
2019-04-22T14:14:22.128Z,101311.74
2019-04-22T14:16:51.086Z,101312.11
2019-04-22T14:19:23.652Z,101311.14
2019-04-22T14:21:53.895Z,101311.89
2019-04-22T14:24:23.781Z,101301.41
2019-04-22T14:27:07.198Z,101302.52
2019-04-22T14:29:23.966Z,101306.16
2019-04-22T14:32:02.831Z,101300.28
2019-04-22T14:34:24.274Z,101308.92
2019-04-22T14:36:55.307Z,101310.56
2019-04-22T14:39:26.026Z,101296.64
2019-04-22T14:42:15.767Z,101291.98
2019-04-22T14:47:19.623Z,101291.92
2019-04-22T14:49:48.088Z,101285.36
2019-04-22T14:52:22.774Z,101294.34
2019-04-22T14:54:43.482Z,101284.25
2019-04-22T14:57:01.317Z,101287.52
2019-04-22T14:59:32.569Z,101295.13
2019-04-22T15:02:01.891Z,101290.93
2019-04-22T15:04:31.159Z,101281.61
2019-04-22T15:07:01.164Z,101276.92
2019-04-22T15:09:32.112Z,101271.09
2019-04-22T15:12:12.057Z,101271.42
2019-04-22T15:14:33.147Z,101269.75
2019-04-22T15:17:20.708Z,101265.78
2019-04-22T15:20:17.221Z,101256.64
2019-04-22T15:22:46.533Z,101267.22
2019-04-22T15:25:16.709Z,101280.22
2019-04-22T15:27:45.988Z,101255.97
2019-04-22T15:30:15.209Z,101257.25
2019-04-22T15:32:45.537Z,101248.47
2019-04-22T15:35:15.521Z,101252.80
2019-04-22T15:37:45.683Z,101257.83
2019-04-22T15:40:16.427Z,101261.91
2019-04-22T15:42:46.970Z,101256.30
2019-04-22T15:45:18.801Z,101250.25
2019-04-22T15:47:48.276Z,101246.30
2019-04-22T15:50:18.994Z,101249.44
2019-04-22T15:52:51.961Z,101256.44
2019-04-22T15:55:20.599Z,101244.86
2019-04-22T15:57:49.852Z,101250.25
2019-04-22T16:00:34.715Z,101243.61
2019-04-22T16:02:50.036Z,101249.58
2019-04-22T16:05:20.747Z,101248.08
2019-04-22T16:07:50.727Z,101249.91
2019-04-22T16:10:22.017Z,101255.74
2019-04-22T16:12:57.493Z,101258.71
2019-04-22T16:15:22.508Z,101248.53
2019-04-22T16:17:52.947Z,101240.67
2019-04-22T16:20:23.312Z,101250.44
2019-04-22T16:23:20.237Z,101249.59
2019-04-22T16:26:09.639Z,101252.78
2019-04-22T16:28:39.707Z,101242.20
2019-04-22T16:31:09.571Z,101236.94
2019-04-22T16:33:41.683Z,101237.77
2019-04-22T16:36:11.045Z,101233.95
2019-04-22T16:38:40.799Z,101238.37
2019-04-22T16:41:10.894Z,101235.00
2019-04-22T16:43:40.743Z,101230.09
2019-04-22T16:46:09.906Z,101236.61
2019-04-22T16:48:39.971Z,101226.80
2019-04-22T16:51:11.882Z,101228.31
2019-04-22T16:53:45.227Z,101223.39
2019-04-22T16:56:15.377Z,101227.41
2019-04-22T16:58:54.707Z,101224.34
2019-04-22T17:04:55.777Z,101223.45
2019-04-22T17:07:26.544Z,101225.06
2019-04-22T17:10:15.594Z,101224.47
2019-04-22T17:12:54.299Z,101218.45
2019-04-22T17:15:24.081Z,101223.09
2019-04-22T17:17:54.931Z,101228.80
2019-04-22T17:20:25.135Z,101220.17
2019-04-22T17:22:55.974Z,101231.08
2019-04-22T17:25:26.580Z,101224.69
2019-04-22T17:27:57.377Z,101219.94
2019-04-22T17:30:29.127Z,101226.05
2019-04-22T17:33:00.905Z,101222.29
2019-04-22T17:35:31.608Z,101234.86
2019-04-22T17:38:10.154Z,101226.53
2019-04-22T17:40:51.216Z,101236.84
2019-04-22T17:43:36.209Z,101233.95
2019-04-22T17:46:07.176Z,101243.13
2019-04-22T17:48:53.342Z,101242.63
2019-04-22T17:51:29.838Z,101248.89
2019-04-22T17:53:57.982Z,101253.39
2019-04-22T17:56:27.578Z,101249.03
2019-04-22T17:58:57.076Z,101245.66
2019-04-22T18:01:29.947Z,101250.12
2019-04-22T18:03:48.568Z,101247.09
2019-04-22T18:06:39.177Z,101246.27
2019-04-22T18:09:01.797Z,101246.20
2019-04-22T18:11:44.606Z,101247.37
2019-04-22T18:14:26.076Z,101248.81
2019-04-22T18:16:41.468Z,101256.84
2019-04-22T18:19:13.952Z,101255.74
2019-04-22T18:21:35.026Z,101255.78
2019-04-22T18:24:04.890Z,101260.06
2019-04-22T18:26:47.957Z,101264.59
2019-04-22T18:29:17.438Z,101264.70
2019-04-22T18:31:45.087Z,101265.03
2019-04-22T18:34:16.976Z,101267.27
2019-04-22T18:36:54.123Z,101267.78
2019-04-22T18:39:36.346Z,101274.52
2019-04-22T18:41:58.638Z,101267.21
2019-04-22T18:44:34.768Z,101263.21
2019-04-22T18:47:00.996Z,101273.34
2019-04-22T18:49:40.605Z,101282.69
2019-04-22T18:52:24.606Z,101280.50
2019-04-22T18:55:14.277Z,101281.37
2019-04-22T18:58:01.031Z,101282.28
2019-04-22T19:00:18.113Z,101282.54
2019-04-22T19:02:55.862Z,101283.27
2019-04-22T19:05:42.680Z,101284.55
2019-04-22T19:08:24.135Z,101287.09
2019-04-22T19:10:57.605Z,101295.00
2019-04-22T19:16:01.744Z,101296.70
2019-04-22T19:18:31.901Z,101292.44
2019-04-22T19:21:01.267Z,101301.80
2019-04-22T19:23:29.039Z,101306.67
2019-04-22T19:25:58.642Z,101310.41
2019-04-22T19:28:46.475Z,101315.37
2019-04-22T19:31:09.367Z,101318.27
2019-04-22T19:34:03.308Z,101321.30
2019-04-22T19:36:32.249Z,101322.52
2019-04-22T19:38:59.256Z,101320.94
2019-04-22T19:41:38.911Z,101323.73
2019-04-22T19:44:10.325Z,101333.30
2019-04-22T19:46:42.425Z,101330.38
2019-04-22T19:49:21.980Z,101337.16
2019-04-22T19:51:55.878Z,101342.13
2019-04-22T19:54:15.348Z,101354.61
2019-04-22T19:56:38.350Z,101350.12
2019-04-22T19:59:17.519Z,101342.13
2019-04-22T20:02:04.324Z,101339.82
2019-04-22T20:04:52.930Z,101353.98
2019-04-22T20:07:15.458Z,101353.40
2019-04-22T20:09:55.618Z,101354.84
2019-04-22T20:12:21.725Z,101352.13
2019-04-22T20:14:49.601Z,101346.11
2019-04-22T20:17:28.598Z,101358.09
2019-04-22T20:20:17.560Z,101361.07
2019-04-22T20:22:26.712Z,101365.94
2019-04-22T20:24:47.173Z,101363.13
2019-04-22T20:27:30.412Z,101364.92
2019-04-22T20:30:04.933Z,101365.05
2019-04-22T20:32:34.500Z,101355.94
2019-04-22T20:35:12.589Z,101360.27
2019-04-22T20:40:10.295Z,101358.50
2019-04-22T20:42:48.409Z,101367.45
2019-04-22T20:45:14.949Z,101360.83
2019-04-22T20:47:40.445Z,101366.48
2019-04-22T20:50:21.786Z,101355.16
2019-04-22T20:52:53.991Z,101349.14
2019-04-22T20:55:17.654Z,101357.17
2019-04-22T20:57:53.074Z,101352.90
2019-04-22T21:00:20.172Z,101354.72
2019-04-22T21:02:50.532Z,101351.96
2019-04-22T21:05:23.361Z,101349.83
2019-04-22T21:08:08.049Z,101349.59
2019-04-22T21:10:28.730Z,101352.13
2019-04-22T21:13:01.276Z,101349.38
2019-04-22T21:15:40.778Z,101353.19
2019-04-22T21:18:08.349Z,101348.28
2019-04-22T21:20:48.049Z,101345.07
2019-04-22T21:23:13.904Z,101344.24
2019-04-22T21:25:32.670Z,101340.87
2019-04-22T21:28:17.527Z,101330.30
2019-04-22T21:30:43.378Z,101330.30
2019-04-22T21:33:11.887Z,101325.88
2019-04-22T21:36:16.821Z,101327.93
2019-04-22T21:38:29.243Z,101322.44
2019-04-22T21:40:54.769Z,101323.94
2019-04-22T21:43:30.524Z,101323.94
2019-04-22T21:46:01.294Z,101326.23
2019-04-22T21:48:36.672Z,101318.69
2019-04-22T21:51:04.823Z,101317.95
2019-04-22T21:53:48.847Z,101312.36
2019-04-22T21:56:29.334Z,101311.83
2019-04-22T21:59:01.608Z,101309.25
2019-04-22T22:01:52.762Z,101316.12
2019-04-22T22:04:20.691Z,101321.66
2019-04-22T22:06:42.585Z,101305.48
2019-04-22T22:09:25.080Z,101305.84
2019-04-22T22:11:59.756Z,101297.54
2019-04-22T22:14:29.005Z,101288.52
2019-04-22T22:16:54.678Z,101285.27
2019-04-22T22:19:34.104Z,101289.20
2019-04-22T22:22:16.291Z,101279.08
2019-04-22T22:24:41.372Z,101285.95
2019-04-22T22:27:10.370Z,101278.43
2019-04-22T22:29:59.913Z,101273.82
2019-04-22T22:32:27.516Z,101269.25
2019-04-22T22:34:57.317Z,101270.25
2019-04-22T22:37:13.368Z,101266.33
2019-04-22T22:39:44.866Z,101269.30
2019-04-22T22:42:10.872Z,101261.18
2019-04-22T22:44:47.997Z,101256.08
2019-04-22T22:47:32.975Z,101248.73
2019-04-22T22:50:03.270Z,101248.37
2019-04-22T22:52:51.814Z,101245.03
2019-04-22T22:55:12.055Z,101229.88
2019-04-22T22:57:38.313Z,101235.09
2019-04-22T23:12:04.822Z,101227.82
2019-04-22T23:14:34.397Z,101229.69
2019-04-22T23:16:47.423Z,101227.46
2019-04-22T23:19:11.122Z,101222.46
2019-04-22T23:21:45.906Z,101218.17
2019-04-22T23:24:44.016Z,101220.53
2019-04-22T23:27:21.097Z,101220.17
2019-04-22T23:30:02.562Z,101218.16
2019-04-22T23:32:35.780Z,101209.78
2019-04-22T23:35:22.698Z,101217.86
2019-04-22T23:38:07.446Z,101209.30
2019-04-22T23:40:37.096Z,101205.48
2019-04-22T23:43:07.131Z,101205.96
2019-04-22T23:45:41.669Z,101214.66
2019-04-22T23:48:09.818Z,101205.25
2019-04-22T23:50:48.020Z,101198.05
2019-04-22T23:53:55.481Z,101205.16
2019-04-22T23:56:17.497Z,101201.27
2019-04-22T23:58:50.511Z,101197.80
